Airfield :
LOGIN :

Register | Disclaimer

   EN    FR    IT 

 










Legend :    VFR   Marginal VFR   IFR   Intensive IFR   Very Intensive IFR
Visi :
Ceiling :
>= 8 km
>= 3000ft
5 to 8 km
1000 to 3000 ft
1500m to 5 km
500 to 1000 ft
800 to 1500m
200 to 500 ft
< 800m
< 200 ft
Symbols :   Thunderstorms  Fog  Heavy snow  Heavy precipitations  Wind > 20 kt
SIGMETs :     Misc.  Thunderstorms  Icing  Turbulence  Mountain Waves  Volcanic Ashes







- Airport Elevation : 17 ft
- IATA code : GRQ


EHGG - Groningen Eelde

EXPIRED METARs :
  • 241425Z AUTO 28010KT 240V310 9999 FEW027 SCT030 BKN038 18/13 Q1012 NOSIG
  • 241355Z AUTO 28013KT 240V310 9999 BKN025 OVC028 19/13 Q1012 NOSIG
  • 241325Z AUTO 27012KT 220V320 9999 SCT024 BKN029 BKN037 20/14 Q1012 NOSIG
  • 241255Z AUTO 26016KT 230V290 9999 FEW027 BKN030 OVC036 19/14 Q1012 NOSIG
  • 241225Z AUTO 27014KT 220V310 9999 FEW020 SCT034 20/15 Q1011 TEMPO BKN012
  • 241155Z AUTO 28013KT 220V310 9999 SCT021 BKN025 BKN031 19/15 Q1011 TEMPO BKN012

TAF TAF EHGG
Valid from the 24 at 12:00 until the 25 at 18:00 UTC


241102Z 2412/2518 26012KT 9999 BKN020
TEMPO 2412/2503 4000 -DZRA -SHRA BKN005 FEW015TCU
BECMG 2418/2421 BKN012
BECMG 2501/2504 SCT018
PROB30
TEMPO 2509/2518 5000 -SHRA -RADZ BKN012 SCT020TCU
No reported NOTAMs for that airfield.



MET'MAP, your aeronautical weather chart ! - Copyright ORBIFLY December 2007 - Disclaimer

ORBIFLY MET'MAP TEAM :

Programming & Development : Alexandra Zaïnal
Concept & Development : Baudouin d'Aumeries
Co-Development & Prog : Marc-Olivier Méhu
Technical & hardware support : Manuel Goepfert

Contact : metmap@orbifly.com




SOURCES & CREDITS :

   NOAA